Flight Information

DEPARTURE
LOS ANGELES, CA
Elevation:
1003
Runways:
12/30 - 4120x75 - ASPH-G
ATIS:
132.1 818-899-9820
Ground:
125
Tower:
135
DESTINATION
,
Elevation:
TPA:
1000 (est.)


6789.2 NM73° True-14° Var59° HDG

Flight Plan:
(click to file on line)

1. Type
2. Aircraft Identification
3. Aircraft Type / Special Equipment
4. True Airspeed
kts
5. Departure Airport
(ICAO code)
6. Arriving Airport
(ICAO code)
7. Cruising Altitude
ft
8. Alternate Airport
(ICAO code)
9. Route of Flight
10. Remarks


00:00:00 Departure ATIS: Destination ATIS:

Clearance Limit:
Route:
Altitude: Expect in minutes
Frequency:
Transponder: (7500 Hijack / 7600 Lost Comms / 7700 Emergency)


KBUR 010753Z 10006KT 10SM CLR 16/09 A2987 RMK AO2 SLP102 T01610094 402560106
Time: 2020-04-01T07:53:00Z
1585730120
Winds: 100 @ 6 kts
Visibility: 10.0 sm
Clouds (AGL): CLR
Temperature: 16.1 C
Dew Point: 9.4 C
Pressure: 29.870079 in Hgbr


Notes:

Data extracted from FAA Digital Chart Supplement. Effective: 0901Z Thursday, Mar 26, 2020 to 0901Z Thursday, May 21, 2020
Current ATIS data is provided courtisy of PilotEdge.